Time;durP1;ratioP1;P1;durP2;ratioP2;P2;SDS_P1;SDS_P2;PMS_P1;PMS_P2;Temp;Humidity;BMP_temperature;BMP_pressure;BME280_temperature;BME280_humidity;BME280_pressure;Samples;Min_cycle;Max_cycle;Signal;HPM_P1;HPM_P2
2023/07/02 00:02:15;;;;;;;10.68;8.02;;;;;;;-144.30;96.88;84591.41;5074905;28;20158;-78
2023/07/02 00:04:43;;;;;;;11.75;8.10;;;;;;;-144.30;96.61;84557.63;5075983;28;25065;-78
2023/07/02 00:07:09;;;;;;;9.00;8.07;;;;;;;-144.30;96.15;84569.53;5075510;28;20165;-80
2023/07/02 00:09:36;;;;;;;10.60;8.13;;;;;;;-144.30;97.29;84567.56;5074457;28;20164;-80
2023/07/02 00:12:04;;;;;;;8.07;7.30;;;;;;;-144.30;98.29;84513.91;5077017;28;20197;-78
2023/07/02 00:14:30;;;;;;;8.73;8.00;;;;;;;-144.30;98.76;84565.56;5076063;28;20205;-77
2023/07/02 00:16:59;;;;;;;9.25;8.20;;;;;;;-144.30;98.98;84609.31;5075332;28;20205;-78
2023/07/02 00:19:26;;;;;;;8.88;7.97;;;;;;;-144.30;99.13;84967.06;5075332;28;20188;-78
2023/07/02 00:21:55;;;;;;;8.77;7.78;;;;;;;-144.30;99.88;84605.31;5075163;28;20312;-78
2023/07/02 00:24:21;;;;;;;9.32;8.45;;;;;;;-144.30;99.54;84621.22;5074984;28;20172;-79
2023/07/02 00:26:48;;;;;;;8.68;7.85;;;;;;;-144.30;99.65;84621.22;5074977;28;20205;-79
2023/07/02 00:29:15;;;;;;;9.07;8.25;;;;;;;-144.30;99.76;84605.31;5076059;28;20301;-79
2023/07/02 00:31:42;;;;;;;9.68;8.07;;;;;;;-144.30;99.21;84607.31;5075478;28;20193;-78
2023/07/02 00:34:11;;;;;;;9.60;8.70;;;;;;;-144.30;98.35;84581.47;5075483;28;20176;-79
2023/07/02 00:36:38;;;;;;;11.60;9.85;;;;;;;-144.30;97.89;84565.56;5075328;28;20237;-79
2023/07/02 00:39:05;;;;;;;10.95;9.93;;;;;;;-144.30;97.41;84597.38;5058506;28;20329;-79
2023/07/02 00:41:31;;;;;;;11.20;10.10;;;;;;;-144.30;96.80;85046.56;5054796;28;25102;-79
2023/07/02 00:43:58;;;;;;;12.48;11.07;;;;;;;-144.30;96.21;84569.53;5054975;28;20271;-79
2023/07/02 00:46:26;;;;;;;12.25;10.98;;;;;;;-144.30;96.40;84571.53;5058606;28;20165;-80
2023/07/02 00:48:55;;;;;;;12.02;10.88;;;;;;;-144.30;96.68;84505.94;5058670;28;20155;-79
2023/07/02 00:51:24;;;;;;;15.75;10.05;;;;;;;-144.30;96.54;84577.50;5057535;28;20167;-81
2023/07/02 00:53:53;;;;;;;10.43;9.10;;;;;;;-144.30;96.63;84589.41;5058423;28;20154;-79
2023/07/02 00:56:20;;;;;;;11.43;10.35;;;;;;;-144.30;96.95;84601.34;5058973;28;20288;-79
2023/07/02 00:58:48;;;;;;;11.65;10.48;;;;;;;-144.30;96.56;84615.25;5058874;28;25075;-79
2023/07/02 01:01:16;;;;;;;12.15;10.85;;;;;;;-144.30;96.62;84597.38;5057078;28;20253;-80
2023/07/02 01:04:02;;;;;;;11.23;9.65;;;;;;;-144.30;95.98;84619.22;5057100;28;20592;-81
2023/07/02 01:06:31;;;;;;;12.50;9.82;;;;;;;-144.30;95.55;84631.16;5057527;28;20535;-78
2023/07/02 01:09:01;;;;;;;11.27;9.95;;;;;;;-144.30;95.54;84601.34;5057597;28;20202;-78
2023/07/02 01:11:31;;;;;;;11.23;9.90;;;;;;;-144.30;95.79;84601.34;5057463;28;20194;-80
2023/07/02 01:14:03;;;;;;;11.70;10.45;;;;;;;-144.30;95.44;84575.50;5057747;28;20166;-79
2023/07/02 01:16:32;;;;;;;14.13;9.88;;;;;;;-144.30;95.50;84609.31;5057610;28;20205;-80
2023/07/02 01:19:03;;;;;;;19.15;10.77;;;;;;;-144.30;94.90;84567.56;5057818;28;20178;-81
2023/07/02 01:21:33;;;;;;;13.52;11.68;;;;;;;-144.30;94.33;84597.38;5057780;28;20689;-81
2023/07/02 01:24:01;;;;;;;14.75;12.57;;;;;;;-144.30;93.81;84581.47;5057520;28;25102;-80
2023/07/02 01:26:31;;;;;;;14.10;12.02;;;;;;;-144.30;93.70;84597.38;5057556;28;20162;-81
2023/07/02 01:28:58;;;;;;;16.10;13.18;;;;;;;-144.30;92.77;84581.47;5058587;28;25069;-81
2023/07/02 01:31:25;;;;;;;15.63;11.77;;;;;;;-144.30;92.29;84501.97;5058011;28;25131;-80
2023/07/02 01:33:52;;;;;;;14.40;12.35;;;;;;;-144.30;92.59;84597.38;5057630;28;20154;-81
2023/07/02 01:36:19;;;;;;;15.65;11.52;;;;;;;-144.30;93.00;84617.25;5058706;28;20590;-80
2023/07/02 01:38:47;;;;;;;17.85;14.55;;;;;;;-144.30;92.85;84617.25;5057867;28;20700;-81
2023/07/02 01:41:14;;;;;;;19.70;13.30;;;;;;;-144.30;92.80;84609.31;5057088;28;20245;-81
2023/07/02 01:43:41;;;;;;;17.52;13.20;;;;;;;-144.30;92.82;84561.59;5057822;28;25066;-82
2023/07/02 01:46:08;;;;;;;14.02;12.52;;;;;;;-144.30;92.33;84653.03;5058215;28;20154;-82
2023/07/02 01:48:35;;;;;;;17.42;14.07;;;;;;;-144.30;92.96;84289.31;5057145;28;20650;-82
2023/07/02 01:51:02;;;;;;;12.90;11.60;;;;;;;-144.30;93.29;84613.28;5057664;28;20181;-82
2023/07/02 01:53:29;;;;;;;15.57;13.60;;;;;;;-144.30;93.32;84649.03;5057965;28;20266;-82
2023/07/02 01:55:58;;;;;;;17.23;13.00;;;;;;;-144.30;92.70;84581.47;5057004;28;20693;-79
2023/07/02 01:58:25;;;;;;;11.52;10.35;;;;;;;-144.30;92.90;84657.00;5056712;28;25108;-78
2023/07/02 02:00:52;;;;;;;10.55;9.48;;;;;;;-144.30;92.43;84649.03;5057101;28;20166;-78
2023/07/02 02:03:19;;;;;;;10.73;9.63;;;;;;;-144.30;91.88;84660.97;5056463;28;20218;-79
2023/07/02 02:05:46;;;;;;;15.13;11.15;;;;;;;-144.30;91.65;84625.19;5055766;28;20217;-80
2023/07/02 02:08:13;;;;;;;12.77;9.60;;;;;;;-144.30;91.94;84603.34;5057050;28;20241;-80
2023/07/02 02:10:40;;;;;;;11.02;9.55;;;;;;;-144.30;91.66;84647.06;5055863;28;20163;-80
2023/07/02 02:13:08;;;;;;;12.32;10.07;;;;;;;-144.30;92.24;84662.97;5056786;28;20550;-80
2023/07/02 02:15:36;;;;;;;9.63;8.30;;;;;;;-144.30;92.14;84617.25;5056637;28;20614;-81
2023/07/02 02:18:03;;;;;;;10.77;8.02;;;;;;;-144.30;91.84;84559.63;5055843;28;20250;-81
2023/07/02 02:20:30;;;;;;;10.65;9.20;;;;;;;-144.30;91.81;84492.03;5056348;28;20162;-80
2023/07/02 02:22:57;;;;;;;9.32;8.43;;;;;;;-144.30;91.38;84637.13;5056507;28;20145;-80
2023/07/02 02:25:24;;;;;;;9.30;8.35;;;;;;;-144.30;91.04;84657.00;5056579;28;20158;-78
2023/07/02 02:27:51;;;;;;;11.68;8.77;;;;;;;-144.30;90.84;84589.41;5055989;28;20155;-81
2023/07/02 02:30:19;;;;;;;11.45;9.02;;;;;;;-144.30;90.53;85320.91;5055991;28;20162;-81
2023/07/02 02:32:46;;;;;;;10.20;8.88;;;;;;;-144.30;91.16;84631.16;5056447;28;20166;-80
2023/07/02 02:35:13;;;;;;;12.02;8.23;;;;;;;-144.30;91.50;84676.88;5056915;28;20163;-80
2023/07/02 02:37:40;;;;;;;10.80;8.30;;;;;;;-144.30;91.74;84678.84;5057743;28;20181;-80
2023/07/02 02:40:08;;;;;;;9.77;8.40;;;;;;;-144.30;91.82;84589.41;5057900;28;20210;-80
2023/07/02 02:42:35;;;;;;;10.10;8.57;;;;;;;-144.30;92.09;84641.09;5058299;28;20210;-80
2023/07/02 02:45:02;;;;;;;10.07;8.50;;;;;;;-144.30;91.91;84637.13;5057676;28;20155;-79
2023/07/02 02:47:31;;;;;;;11.85;8.55;;;;;;;-144.30;91.97;84672.91;5056776;28;25074;-79
2023/07/02 02:49:57;;;;;;;8.85;8.00;;;;;;;-144.30;92.15;84684.81;5058496;28;20154;-78
2023/07/02 02:52:25;;;;;;;10.75;8.90;;;;;;;-144.30;92.32;84660.97;5058417;28;20170;-80
2023/07/02 02:54:52;;;;;;;10.73;9.10;;;;;;;-144.30;92.64;84722.59;5055364;28;20208;-79
2023/07/02 02:57:19;;;;;;;9.45;8.65;;;;;;;-144.30;92.69;84712.66;5054889;28;20158;-79
2023/07/02 02:59:46;;;;;;;10.80;9.18;;;;;;;-144.30;92.16;85436.19;5055791;28;25083;-79
2023/07/02 03:02:13;;;;;;;12.02;8.43;;;;;;;-144.30;92.25;84692.78;5054888;28;20209;-79
2023/07/02 03:04:44;;;;;;;11.18;9.35;;;;;;;-144.30;92.28;84700.72;5043359;28;20233;-79
2023/07/02 03:07:11;;;;;;;11.35;8.57;;;;;;;-144.30;91.87;84633.16;5045353;28;20162;-79
2023/07/02 03:09:38;;;;;;;11.90;8.38;;;;;;;-144.30;91.72;84653.03;5043052;28;20253;-79
2023/07/02 03:12:05;;;;;;;19.13;9.32;;;;;;;-144.30;91.21;84710.66;5045956;28;20242;-79
2023/07/02 03:14:32;;;;;;;18.50;11.70;;;;;;;-144.30;91.58;84660.97;5040596;28;20170;-79
2023/07/02 03:16:59;;;;;;;15.93;13.10;;;;;;;-144.30;91.79;84587.44;5042955;28;20170;-79
2023/07/02 03:19:26;;;;;;;13.95;11.27;;;;;;;-144.30;91.32;84688.81;5043412;28;20182;-80
2023/07/02 03:21:54;;;;;;;12.25;10.73;;;;;;;-144.30;91.31;84668.94;5043782;28;20206;-79
2023/07/02 03:24:22;;;;;;;18.25;11.80;;;;;;;-144.30;91.19;84637.13;5045240;28;20207;-81
2023/07/02 03:26:49;;;;;;;13.20;10.70;;;;;;;-144.30;91.09;84662.97;5043092;28;20621;-78
2023/07/02 03:29:16;;;;;;;14.07;11.05;;;;;;;-144.30;90.59;84629.19;5046135;28;20685;-80
2023/07/02 03:31:43;;;;;;;12.77;10.52;;;;;;;-144.30;89.78;84633.16;5046309;28;20568;-80
2023/07/02 03:34:11;;;;;;;11.70;10.32;;;;;;;-144.30;89.39;84593.41;5046532;28;20163;-78
2023/07/02 03:36:38;;;;;;;13.60;9.88;;;;;;;-144.30;88.62;84637.13;5043615;28;20198;-78
2023/07/02 03:39:06;;;;;;;19.15;10.80;;;;;;;-144.30;88.45;84629.19;5042937;28;20185;-77
2023/07/02 03:41:33;;;;;;;13.02;10.18;;;;;;;-144.30;87.82;84649.03;5046034;28;20166;-78
2023/07/02 03:44:00;;;;;;;10.75;9.05;;;;;;;-144.30;87.13;84609.31;5043415;28;20542;-79
2023/07/02 03:46:27;;;;;;;13.63;8.88;;;;;;;-144.30;86.83;84645.06;5048957;28;20561;-79
2023/07/02 03:48:54;;;;;;;10.52;8.32;;;;;;;-144.30;86.24;84609.31;5044438;28;20155;-78
2023/07/02 03:51:21;;;;;;;8.23;7.43;;;;;;;-144.30;85.93;84613.28;5048250;28;25077;-78
2023/07/02 03:53:48;;;;;;;12.30;7.15;;;;;;;-144.30;86.27;84625.19;5046594;28;20219;-79
2023/07/02 03:56:16;;;;;;;10.98;8.40;;;;;;;-144.30;86.05;84617.25;5049693;28;20169;-78
2023/07/02 03:58:43;;;;;;;19.95;8.43;;;;;;;-144.30;85.96;84629.19;5045637;28;20170;-78
2023/07/02 04:01:10;;;;;;;14.02;8.32;;;;;;;-144.30;85.86;84561.59;5042842;28;20238;-79
2023/07/02 04:03:37;;;;;;;12.70;7.78;;;;;;;-144.30;86.22;84591.41;5045788;28;20174;-81
2023/07/02 04:06:05;;;;;;;14.13;7.57;;;;;;;-144.30;86.31;84649.03;5046370;28;20538;-79
2023/07/02 04:08:32;;;;;;;10.52;8.75;;;;;;;-144.30;87.44;84651.03;5045806;28;20281;-80
2023/07/02 04:10:59;;;;;;;12.98;8.45;;;;;;;-144.30;88.18;84662.97;5036644;28;25069;-79
2023/07/02 04:13:27;;;;;;;15.00;8.20;;;;;;;-144.30;88.16;84668.94;5045499;28;25115;-79
2023/07/02 04:15:54;;;;;;;9.68;7.88;;;;;;;-144.30;88.43;84684.81;5052108;28;20157;-78
2023/07/02 04:18:21;;;;;;;15.10;8.40;;;;;;;-144.30;88.81;84676.88;5054794;28;20158;-79
2023/07/02 04:20:48;;;;;;;15.23;8.20;;;;;;;-144.30;89.60;84668.94;5054519;28;20166;-79
2023/07/02 04:23:16;;;;;;;10.15;9.18;;;;;;;-144.30;89.37;84708.66;5053998;28;20162;-79
2023/07/02 04:25:43;;;;;;;9.35;8.45;;;;;;;-144.30;89.71;84649.03;5052926;28;20249;-79
2023/07/02 04:28:10;;;;;;;16.60;8.60;;;;;;;-144.30;89.80;84680.84;5051676;28;20277;-79
2023/07/02 04:30:38;;;;;;;13.40;8.90;;;;;;;-144.30;89.44;84615.25;5050306;28;20189;-78
2023/07/02 04:33:05;;;;;;;10.98;8.68;;;;;;;-144.30;88.63;84476.13;5052063;28;20158;-78
2023/07/02 04:35:32;;;;;;;9.07;8.05;;;;;;;-144.30;88.28;84662.97;5051652;28;20635;-78
2023/07/02 04:37:59;;;;;;;11.07;8.20;;;;;;;-144.30;88.06;84613.28;5049948;28;20559;-78
2023/07/02 04:40:26;;;;;;;8.98;8.27;;;;;;;-144.30;87.50;84579.50;5051440;28;20230;-78
2023/07/02 04:42:57;;;;;;;12.20;8.25;;;;;;;-144.30;87.06;84585.44;5051992;28;20598;-81
2023/07/02 04:45:25;;;;;;;13.85;9.07;;;;;;;-144.30;86.88;84561.59;5046477;28;25141;-78
2023/07/02 04:47:54;;;;;;;12.13;9.30;;;;;;;-144.30;86.75;84565.56;5041082;28;20277;-77
2023/07/02 04:50:21;;;;;;;11.18;9.15;;;;;;;-144.30;84.43;84162.16;5043007;28;20215;-77
2023/07/02 04:52:48;;;;;;;14.68;8.45;;;;;;;-144.30;78.61;84271.44;5041410;28;20609;-78
2023/07/02 04:55:15;;;;;;;13.73;8.82;;;;;;;-144.30;76.31;84213.81;5041720;28;25080;-77
2023/07/02 04:57:44;;;;;;;10.75;7.80;;;;;;;-144.30;76.24;84215.78;5032992;28;20191;-78
2023/07/02 05:00:12;;;;;;;9.13;8.23;;;;;;;-144.30;76.20;84076.69;5038234;28;25063;-77
2023/07/02 05:02:39;;;;;;;13.20;8.25;;;;;;;-144.30;71.23;83897.84;5040063;28;25098;-78
2023/07/02 05:05:08;;;;;;;13.85;8.75;;;;;;;-144.30;65.40;83544.16;5039077;28;20197;-78
2023/07/02 05:07:35;;;;;;;8.77;7.95;;;;;;;-144.30;60.07;83256.09;5046312;28;20204;-77
2023/07/02 05:10:02;;;;;;;10.90;8.27;;;;;;;-144.30;56.31;82850.81;5039229;28;20209;-76
2023/07/02 05:12:29;;;;;;;14.00;8.95;;;;;;;-144.30;55.99;82942.19;5041829;28;20286;-76
2023/07/02 05:14:56;;;;;;;16.17;8.43;;;;;;;-144.30;58.79;83122.97;5039036;28;20276;-77
2023/07/02 05:17:23;;;;;;;13.95;9.60;;;;;;;-144.30;64.16;83472.66;5040290;28;20276;-78
2023/07/02 05:19:50;;;;;;;15.10;9.57;;;;;;;-144.30;68.03;84241.63;5041766;28;20217;-80
2023/07/02 05:22:18;;;;;;;15.52;9.27;;;;;;;-144.30;72.83;83911.75;5040993;28;20197;-78
2023/07/02 05:24:46;;;;;;;14.52;10.43;;;;;;;-144.30;75.26;84009.13;5038344;28;20208;-82
2023/07/02 05:27:13;;;;;;;14.40;9.27;;;;;;;-144.30;78.30;84104.50;5042934;28;20208;-81
2023/07/02 05:29:40;;;;;;;12.30;10.70;;;;;;;-144.30;81.45;84174.06;5040736;28;20208;-82
2023/07/02 05:32:07;;;;;;;19.15;9.95;;;;;;;-144.30;83.49;84287.34;5040206;28;20189;-80
2023/07/02 05:34:34;;;;;;;12.18;10.85;;;;;;;-144.30;84.54;85006.81;5043857;28;20206;-81
2023/07/02 05:37:01;;;;;;;15.05;10.43;;;;;;;-144.30;85.81;84315.16;5045896;28;20200;-80
2023/07/02 05:39:30;;;;;;;14.18;10.93;;;;;;;-144.30;85.35;84346.97;5044102;28;20300;-82
2023/07/02 05:41:57;;;;;;;15.73;10.57;;;;;;;-144.30;85.00;84366.84;5045033;28;20271;-80
2023/07/02 05:44:24;;;;;;;12.73;9.93;;;;;;;-144.30;81.80;84281.38;5044977;28;20197;-81
2023/07/02 05:46:51;;;;;;;11.38;8.95;;;;;;;-144.30;80.34;84239.66;5042830;28;20227;-82
2023/07/02 05:49:18;;;;;;;9.98;8.63;;;;;;;-144.30;79.50;84263.50;5042760;28;20169;-82
2023/07/02 05:51:45;;;;;;;11.25;8.98;;;;;;;-144.30;79.34;84259.50;5042818;28;20221;-78
2023/07/02 05:54:12;;;;;;;10.13;9.00;;;;;;;-144.30;80.02;84211.81;5041804;28;20196;-77
2023/07/02 05:56:40;;;;;;;13.70;9.02;;;;;;;-144.30;80.44;84364.84;5041967;28;20271;-76
2023/07/02 05:59:07;;;;;;;10.20;8.68;;;;;;;-144.30;81.15;84376.78;5033950;28;20243;-78
2023/07/02 06:01:34;;;;;;;10.13;8.50;;;;;;;-144.30;81.54;84406.59;5034283;28;20255;-75
2023/07/02 06:04:01;;;;;;;15.80;9.45;;;;;;;-144.30;82.78;84350.94;5034208;28;20288;-78
2023/07/02 06:06:28;;;;;;;11.25;8.57;;;;;;;-144.30;83.60;84434.41;5035874;28;20202;-78
2023/07/02 06:08:55;;;;;;;13.88;9.63;;;;;;;-144.30;85.07;84430.44;5044775;28;20190;-76
2023/07/02 06:11:22;;;;;;;9.20;8.30;;;;;;;-144.30;84.35;84422.47;5051086;28;20228;-76
2023/07/02 06:13:50;;;;;;;13.55;9.15;;;;;;;-144.30;85.47;84470.19;5042284;28;20193;-77
2023/07/02 06:16:17;;;;;;;10.38;9.20;;;;;;;-144.30;85.64;84277.41;5042143;28;20205;-78
2023/07/02 06:18:44;;;;;;;12.02;9.55;;;;;;;-144.30;85.74;84287.34;5050380;28;20197;-78
2023/07/02 06:21:11;;;;;;;10.02;8.40;;;;;;;-144.30;84.79;84422.47;5041260;28;20213;-76
2023/07/02 06:23:42;;;;;;;10.23;9.07;;;;;;;-144.30;84.22;84380.75;5052449;28;20200;-77
2023/07/02 06:26:09;;;;;;;11.07;9.40;;;;;;;-144.30;83.12;84311.19;5051939;28;20611;-77
2023/07/02 06:28:36;;;;;;;10.23;8.20;;;;;;;-144.30;81.33;84239.66;5033440;28;20193;-77
2023/07/02 06:31:04;;;;;;;9.95;8.80;;;;;;;-144.30;80.51;84213.81;5042742;28;20193;-76
2023/07/02 06:33:31;;;;;;;9.68;8.57;;;;;;;-144.30;79.00;84233.69;5041595;28;20279;-77
2023/07/02 06:35:58;;;;;;;10.40;9.20;;;;;;;-144.30;79.13;84227.72;5044716;28;20197;-77
2023/07/02 06:38:25;;;;;;;11.52;8.93;;;;;;;-144.30;79.51;84191.94;5044407;28;20200;-77
2023/07/02 06:40:52;;;;;;;9.25;8.50;;;;;;;-144.30;79.25;84219.78;5041149;28;20213;-77
2023/07/02 06:43:19;;;;;;;15.30;9.13;;;;;;;-144.30;78.02;84484.09;5041949;28;20198;-80
2023/07/02 06:45:46;;;;;;;12.57;8.98;;;;;;;-144.30;75.59;83999.19;5044371;28;20561;-78
2023/07/02 06:48:17;;;;;;;17.25;10.80;;;;;;;-144.30;75.60;84048.88;5037966;28;20236;-78
2023/07/02 06:50:45;;;;;;;9.07;8.18;;;;;;;-144.30;74.79;83911.75;5044049;28;20276;-79
2023/07/02 06:53:13;;;;;;;10.32;8.68;;;;;;;-144.30;72.81;83776.66;5041317;28;20612;-78
2023/07/02 06:55:40;;;;;;;10.77;9.05;;;;;;;-144.30;69.05;83458.72;5041447;28;20204;-78
2023/07/02 06:58:07;;;;;;;13.15;8.45;;;;;;;-144.30;67.16;83615.69;5037745;28;20272;-78
2023/07/02 07:00:35;;;;;;;15.95;9.13;;;;;;;-144.30;66.68;83575.97;5040404;28;20559;-78
2023/07/02 07:03:02;;;;;;;9.75;8.85;;;;;;;-144.30;66.59;83484.56;5042641;28;20193;-77
2023/07/02 07:05:31;;;;;;;9.32;8.48;;;;;;;-144.30;66.80;83607.75;5038018;28;20223;-78
2023/07/02 07:08:00;;;;;;;8.10;7.45;;;;;;;-144.30;66.44;84221.75;5034702;28;20700;-78
2023/07/02 07:10:27;;;;;;;9.82;8.20;;;;;;;-144.30;67.00;83671.34;5043342;28;20197;-79
2023/07/02 07:12:54;;;;;;;9.77;8.98;;;;;;;-144.30;66.92;83663.38;5042299;28;20201;-78
2023/07/02 07:15:21;;;;;;;9.40;8.27;;;;;;;-144.30;67.06;83655.44;5042236;28;20201;-78
2023/07/02 07:17:48;;;;;;;10.02;8.75;;;;;;;-144.30;67.39;83691.19;5042693;28;20208;-78
2023/07/02 07:20:15;;;;;;;14.38;10.02;;;;;;;-144.30;67.38;83730.94;5042391;28;20212;-78
2023/07/02 07:22:43;;;;;;;9.93;8.90;;;;;;;-144.30;66.92;83746.84;5042888;28;20578;-78
2023/07/02 07:25:11;;;;;;;12.57;8.95;;;;;;;-144.30;67.48;83649.47;5039530;28;20198;-77
2023/07/02 07:27:38;;;;;;;8.93;8.13;;;;;;;-144.30;68.54;83786.56;5039623;28;20189;-76
2023/07/02 07:30:06;;;;;;;10.30;9.25;;;;;;;-144.30;68.76;83820.34;5040214;28;20528;-77
2023/07/02 07:32:33;;;;;;;10.00;9.10;;;;;;;-144.30;69.62;83717.03;5038844;28;20717;-75
2023/07/02 07:34:59;;;;;;;9.00;8.20;;;;;;;-144.30;69.64;83923.69;5044277;28;20589;-76
2023/07/02 07:37:26;;;;;;;9.38;8.63;;;;;;;-144.30;70.04;83915.75;5045755;28;20197;-74
2023/07/02 07:39:55;;;;;;;9.40;8.48;;;;;;;-144.30;69.53;83679.28;5037026;28;20216;-74
2023/07/02 07:42:22;;;;;;;11.30;8.63;;;;;;;-144.30;65.25;83500.47;5037567;28;20653;-75
2023/07/02 07:44:49;;;;;;;12.48;8.32;;;;;;;-144.30;61.92;83136.88;5041812;28;20207;-76
2023/07/02 07:47:15;;;;;;;8.60;7.90;;;;;;;-144.30;58.86;83204.44;5040338;28;20200;-77
2023/07/02 07:49:42;;;;;;;8.38;7.68;;;;;;;-144.30;56.35;82872.66;5038685;28;20657;-76
2023/07/02 07:52:09;;;;;;;8.88;7.63;;;;;;;-144.30;55.40;82924.31;5031021;28;20597;-77
2023/07/02 07:54:36;;;;;;;8.57;7.88;;;;;;;-144.30;53.87;82828.97;5038748;28;20199;-76
2023/07/02 07:57:06;;;;;;;9.45;8.00;;;;;;;-144.30;54.41;82940.22;5039850;28;20193;-76
2023/07/02 07:59:33;;;;;;;7.72;7.10;;;;;;;-144.30;53.02;82771.38;5041470;28;20200;-75
2023/07/02 08:02:00;;;;;;;9.40;7.45;;;;;;;-144.30;52.07;82846.84;5041618;28;20200;-76
2023/07/02 08:04:26;;;;;;;9.18;7.43;;;;;;;-144.30;53.41;82944.19;5040429;28;20205;-74
2023/07/02 08:06:54;;;;;;;8.70;7.93;;;;;;;-144.30;54.91;83111.06;5041552;28;20197;-78
2023/07/02 08:09:21;;;;;;;9.20;7.68;;;;;;;-144.30;55.72;83075.31;5033918;28;20756;-77
2023/07/02 08:11:49;;;;;;;9.98;8.13;;;;;;;-144.30;55.54;83027.63;5037985;28;20221;-77
2023/07/02 08:14:17;;;;;;;8.65;7.38;;;;;;;-144.30;53.94;82902.47;5043970;28;20677;-76
2023/07/02 08:16:44;;;;;;;10.15;8.52;;;;;;;-144.30;54.36;82825.00;5038843;28;20652;-77
2023/07/02 08:19:11;;;;;;;15.20;8.63;;;;;;;-144.30;53.85;82791.22;5039564;28;20251;-77
2023/07/02 08:21:39;;;;;;;11.13;8.38;;;;;;;-144.30;52.94;82598.56;5039122;28;20220;-77
2023/07/02 08:24:06;;;;;;;8.10;7.45;;;;;;;-144.30;50.94;82477.38;5037182;28;20224;-76
2023/07/02 08:26:34;;;;;;;8.90;8.00;;;;;;;-144.30;50.56;82513.13;5037168;28;20555;-78
2023/07/02 08:29:00;;;;;;;7.82;7.20;;;;;;;-144.30;48.64;82380.06;5041011;28;20193;-80
2023/07/02 08:31:29;;;;;;;8.98;8.13;;;;;;;-144.30;47.98;82266.84;5042061;28;20196;-80
2023/07/02 08:33:56;;;;;;;8.30;7.57;;;;;;;-144.30;46.30;82193.38;5042548;28;20192;-79
2023/07/02 08:36:23;;;;;;;11.15;8.30;;;;;;;-144.30;46.76;82153.63;5042734;28;20211;-79
2023/07/02 08:38:50;;;;;;;9.45;8.57;;;;;;;-144.30;47.54;82175.50;5039140;28;20204;-80
2023/07/02 08:41:17;;;;;;;8.05;7.38;;;;;;;-144.30;49.13;82435.66;5039430;28;20220;-78
2023/07/02 08:43:44;;;;;;;12.63;11.32;;;;;;;-144.30;50.73;82519.09;5047792;28;20752;-79
2023/07/02 08:46:12;;;;;;;11.10;10.10;;;;;;;-144.30;50.54;82658.13;5045795;28;20200;-80
2023/07/02 08:48:41;;;;;;;10.00;8.20;;;;;;;-144.30;52.31;82813.06;5044717;28;20205;-79
2023/07/02 08:51:08;;;;;;;15.98;10.57;;;;;;;-144.30;52.58;82852.81;5042630;28;20201;-79
2023/07/02 08:53:35;;;;;;;9.55;8.70;;;;;;;-144.30;53.22;82938.22;5043901;28;20207;-78
2023/07/02 08:56:03;;;;;;;8.15;7.45;;;;;;;-144.30;53.02;82878.63;5044925;28;20707;-79
2023/07/02 08:58:30;;;;;;;8.88;7.97;;;;;;;-144.30;52.78;82761.44;5050930;28;20207;-78
2023/07/02 09:01:08;;;;;;;10.70;8.48;;;;;;;-144.30;51.81;82646.22;5051659;28;20220;-78
2023/07/02 09:03:37;;;;;;;9.23;8.43;;;;;;;-144.30;52.56;82805.13;5051318;28;20193;-78
2023/07/02 09:06:05;;;;;;;9.48;8.18;;;;;;;-144.30;52.80;82757.47;5053766;28;20200;-78
2023/07/02 09:08:34;;;;;;;9.15;8.27;;;;;;;-144.30;53.77;82876.66;5054467;28;20665;-78
2023/07/02 09:11:11;;;;;;;11.95;8.35;;;;;;;-144.30;53.58;82876.66;5035708;28;20241;-78
2023/07/02 09:13:45;;;;;;;9.85;8.82;;;;;;;-144.30;53.86;82914.38;5036020;28;20207;-84
2023/07/02 09:16:26;;;;;;;9.55;8.02;;;;;;;-144.30;53.99;83011.72;5037066;28;20232;-84
2023/07/02 09:18:58;;;;;;;8.75;7.85;;;;;;;-144.30;53.69;82916.38;5037503;28;20260;-84
2023/07/02 09:21:38;;;;;;;9.32;8.40;;;;;;;-144.30;53.94;82920.34;5036195;28;20600;-83
2023/07/02 09:24:13;;;;;;;8.43;7.68;;;;;;;-144.30;52.49;82830.97;5036903;28;20197;-84
2023/07/02 09:26:43;;;;;;;11.80;7.68;;;;;;;-144.30;52.69;82924.31;5036346;28;20212;-83
2023/07/02 09:29:10;;;;;;;8.50;7.80;;;;;;;-144.30;52.92;83001.78;5035783;28;20689;-84
2023/07/02 09:31:45;;;;;;;8.55;7.95;;;;;;;-144.30;52.90;82995.84;5036160;28;20203;-84
2023/07/02 09:34:12;;;;;;;9.48;7.93;;;;;;;-144.30;53.35;83007.75;5036676;28;20638;-83
2023/07/02 09:36:41;;;;;;;7.90;7.22;;;;;;;-144.30;52.03;82999.81;5036474;28;20203;-83
2023/07/02 09:39:09;;;;;;;9.27;7.80;;;;;;;-144.30;51.47;82991.88;5036621;28;20259;-84
2023/07/02 09:41:36;;;;;;;12.55;11.38;;;;;;;-144.30;51.42;82958.09;5036104;28;20221;-83
2023/07/02 09:44:04;;;;;;;21.17;18.95;;;;;;;-144.30;51.04;82888.56;5036200;28;20243;-84
2023/07/02 09:46:32;;;;;;;17.25;15.65;;;;;;;-144.30;50.66;82763.41;5036201;28;20197;-84
2023/07/02 09:49:01;;;;;;;10.38;9.48;;;;;;;-144.30;50.78;82878.63;5036030;28;20201;-84
2023/07/02 09:51:28;;;;;;;8.32;7.68;;;;;;;-144.30;50.94;82896.50;5034692;28;20193;-83
2023/07/02 09:53:57;;;;;;;10.30;9.45;;;;;;;-144.30;50.02;82876.66;5036663;28;20197;-84
2023/07/02 09:56:23;;;;;;;8.70;8.00;;;;;;;-144.30;50.34;82773.34;5036481;28;20200;-84
2023/07/02 09:58:51;;;;;;;8.50;7.80;;;;;;;-144.30;51.07;83009.75;5036306;28;20583;-83
2023/07/02 10:01:18;;;;;;;8.88;6.85;;;;;;;-144.30;52.05;83005.78;5035431;28;20271;-85
2023/07/02 10:03:45;;;;;;;15.82;14.30;;;;;;;-144.30;52.45;83075.31;5035126;28;20198;-84
2023/07/02 10:06:12;;;;;;;8.60;7.15;;;;;;;-144.30;53.22;83182.56;5036683;28;20248;-83
2023/07/02 10:08:39;;;;;;;12.55;11.27;;;;;;;-144.30;54.44;83220.31;5050360;28;20253;-84
2023/07/02 10:11:14;;;;;;;11.30;10.18;;;;;;;-144.30;55.74;83226.28;5055138;28;20669;-82
2023/07/02 10:13:41;;;;;;;9.57;8.73;;;;;;;-144.30;55.81;83242.19;5055329;28;20283;-83
2023/07/02 10:16:08;;;;;;;8.35;7.65;;;;;;;-144.30;57.21;83305.75;5055756;28;20200;-84
2023/07/02 10:18:35;;;;;;;9.27;8.43;;;;;;;-144.30;57.57;83103.13;5055020;28;20197;-84
2023/07/02 10:21:14;;;;;;;10.23;9.43;;;;;;;-144.30;59.35;83399.13;5055431;28;20222;-82
2023/07/02 10:23:41;;;;;;;12.70;10.75;;;;;;;-144.30;64.09;83381.25;5055352;28;20203;-83
2023/07/02 10:26:15;;;;;;;13.48;8.68;;;;;;;-144.30;65.08;84076.69;5057145;28;20262;-84
2023/07/02 10:28:42;;;;;;;9.80;8.88;;;;;;;-144.30;67.18;83424.97;5057527;28;20660;-84
2023/07/02 10:31:19;;;;;;;22.00;19.73;;;;;;;-144.30;67.14;83560.06;5058788;28;20197;-84
2023/07/02 10:33:46;;;;;;;10.95;9.85;;;;;;;-144.30;67.64;83593.84;5056721;28;20637;-85
2023/07/02 10:36:20;;;;;;;11.38;10.18;;;;;;;-144.30;68.40;83452.78;5047607;28;20193;-83
2023/07/02 10:38:48;;;;;;;8.80;8.10;;;;;;;-144.30;68.90;83681.28;5053756;28;20321;-81
2023/07/02 10:41:25;;;;;;;9.77;8.65;;;;;;;-144.30;69.63;83701.13;5053656;28;20225;-78
2023/07/02 10:43:52;;;;;;;10.65;9.65;;;;;;;-144.30;71.13;83715.03;5053036;28;20197;-79
2023/07/02 10:46:22;;;;;;;13.13;10.48;;;;;;;-144.30;73.52;83786.56;5053179;28;20652;-76
2023/07/02 10:48:53;;;;;;;15.10;13.48;;;;;;;-144.30;75.50;83826.31;5036246;28;20228;-77
2023/07/02 10:51:21;;;;;;;14.38;13.10;;;;;;;-144.30;75.54;83919.72;5040176;28;20188;-79
2023/07/02 10:53:56;;;;;;;12.35;10.13;;;;;;;-144.30;77.33;83854.13;5045263;28;20190;-77
2023/07/02 10:56:25;;;;;;;21.35;17.83;;;;;;;-144.30;76.32;83955.47;5042027;28;20200;-80
2023/07/02 10:58:52;;;;;;;25.80;21.90;;;;;;;-144.30;77.31;83917.72;5039521;28;20735;-78
2023/07/02 11:01:23;;;;;;;39.63;32.45;;;;;;;-144.30;76.87;83973.38;5040468;28;20608;-78
2023/07/02 11:03:57;;;;;;;26.77;19.08;;;;;;;-144.30;78.84;83987.28;5033546;28;20590;-78
2023/07/02 11:06:24;;;;;;;18.90;10.35;;;;;;;-144.30;84.12;84001.19;5034733;28;20212;-77
2023/07/02 11:08:51;;;;;;;12.43;10.65;;;;;;;-144.30;85.23;84070.72;5032400;28;20209;-77
2023/07/02 11:11:18;;;;;;;22.48;12.38;;;;;;;-144.30;85.48;84056.81;5034662;28;20225;-77
2023/07/02 11:13:48;;;;;;;22.38;13.63;;;;;;;-144.30;87.86;83917.72;5044573;28;20592;-77